createdAt,value
2023-01-15T00:00:30.565Z,88.10
2023-01-15T00:07:31.786Z,87.91
2023-01-15T00:09:59.706Z,87.83
2023-01-15T00:12:27.642Z,87.78
2023-01-15T00:19:30.986Z,87.51
2023-01-15T00:21:58.942Z,87.48
2023-01-15T00:24:45.343Z,87.46
2023-01-15T00:27:31.923Z,87.22
2023-01-15T00:29:59.957Z,87.23
2023-01-15T00:32:29.884Z,87.24
2023-01-15T00:35:01.175Z,87.05
2023-01-15T00:37:29.318Z,86.86
2023-01-15T00:39:57.245Z,86.82
2023-01-15T00:42:25.379Z,86.86
2023-01-15T00:44:53.250Z,86.87
2023-01-15T00:47:21.480Z,86.79
2023-01-15T00:49:50.643Z,86.68
2023-01-15T00:52:18.602Z,86.48
2023-01-15T00:54:48.396Z,86.47
2023-01-15T00:57:16.435Z,86.23
2023-01-15T00:59:44.286Z,86.17
2023-01-15T01:02:12.509Z,86.03
2023-01-15T01:04:40.578Z,85.95
2023-01-15T01:07:08.703Z,85.57
2023-01-15T01:09:36.981Z,85.47
2023-01-15T01:12:05.296Z,85.58
2023-01-15T01:14:33.731Z,85.52
2023-01-15T01:17:01.670Z,85.35
2023-01-15T01:19:29.811Z,85.50
2023-01-15T01:21:57.914Z,85.12
2023-01-15T01:24:26.317Z,85.40
2023-01-15T01:26:54.865Z,85.16
2023-01-15T01:29:24.715Z,85.33
2023-01-15T01:31:52.696Z,85.27
2023-01-15T01:34:20.821Z,85.24
2023-01-15T01:36:48.779Z,85.30
2023-01-15T01:39:19.237Z,85.02
2023-01-15T01:41:48.155Z,84.97
2023-01-15T01:44:35.186Z,85.14
2023-01-15T01:47:08.218Z,85.24
2023-01-15T01:49:40.276Z,84.97
2023-01-15T01:52:15.889Z,85.08
2023-01-15T01:54:47.288Z,84.95
2023-01-15T01:57:16.987Z,85.15
2023-01-15T01:59:45.731Z,84.89
2023-01-15T02:02:15.461Z,85.03
2023-01-15T02:04:44.252Z,84.72
2023-01-15T02:07:12.874Z,84.56
2023-01-15T02:09:40.731Z,84.82
2023-01-15T02:12:23.554Z,84.69
2023-01-15T02:15:09.557Z,84.61
2023-01-15T02:17:56.674Z,84.51
2023-01-15T02:20:53.288Z,84.38
2023-01-15T02:23:49.409Z,84.62
2023-01-15T02:26:37.349Z,84.68
2023-01-15T02:29:08.567Z,84.50
2023-01-15T02:31:40.343Z,84.69
2023-01-15T02:34:17.334Z,84.85
2023-01-15T02:36:50.829Z,84.93
2023-01-15T02:39:29.239Z,84.73
2023-01-15T02:42:02.276Z,84.75
2023-01-15T02:44:36.406Z,84.67
2023-01-15T02:47:06.041Z,84.55
2023-01-15T02:49:37.069Z,84.82
2023-01-15T02:52:17.454Z,84.72
2023-01-15T02:55:00.886Z,84.91
2023-01-15T02:57:34.099Z,84.90
2023-01-15T03:00:07.351Z,84.92
2023-01-15T03:02:51.440Z,84.95
2023-01-15T03:05:28.037Z,85.12
2023-01-15T03:08:04.327Z,84.99
2023-01-15T03:10:46.556Z,85.00
2023-01-15T03:13:23.839Z,84.96
2023-01-15T03:16:28.334Z,84.82
2023-01-15T03:19:05.127Z,84.71
2023-01-15T03:21:52.128Z,84.90
2023-01-15T03:24:33.407Z,84.70
2023-01-15T03:27:02.671Z,84.68
2023-01-15T03:29:34.770Z,84.22
2023-01-15T03:32:03.793Z,84.26
2023-01-15T03:34:46.589Z,84.38
2023-01-15T03:37:23.392Z,84.31
2023-01-15T03:39:52.827Z,84.22
2023-01-15T03:42:50.136Z,84.33
2023-01-15T03:45:32.762Z,83.94
2023-01-15T03:48:26.768Z,84.09
2023-01-15T03:51:04.636Z,84.10
2023-01-15T03:53:55.938Z,83.80
2023-01-15T03:56:32.546Z,83.84
2023-01-15T03:59:13.595Z,83.66
2023-01-15T04:01:54.196Z,83.79
2023-01-15T04:04:27.294Z,83.79
2023-01-15T04:06:57.022Z,83.51
2023-01-15T04:09:25.177Z,83.69
2023-01-15T04:12:01.015Z,83.81
2023-01-15T04:14:33.769Z,83.68
2023-01-15T04:17:07.446Z,83.70
2023-01-15T04:19:35.573Z,83.31
2023-01-15T04:22:10.708Z,83.51
2023-01-15T04:24:38.645Z,83.29
2023-01-15T04:27:06.467Z,83.30
2023-01-15T04:29:34.286Z,83.29
2023-01-15T04:32:02.406Z,83.38
2023-01-15T04:34:30.650Z,82.90
2023-01-15T04:36:58.472Z,82.81
2023-01-15T04:39:26.288Z,82.81
2023-01-15T04:42:12.898Z,82.86
2023-01-15T04:44:40.747Z,82.70
2023-01-15T04:47:09.595Z,82.57
2023-01-15T04:49:37.625Z,82.64
2023-01-15T04:52:05.753Z,82.34
2023-01-15T04:54:33.582Z,82.25
2023-01-15T04:57:01.401Z,82.29
2023-01-15T04:59:29.221Z,81.90
2023-01-15T05:02:04.214Z,82.02
2023-01-15T05:04:35.127Z,81.83
2023-01-15T05:07:05.240Z,81.88
2023-01-15T05:09:33.481Z,81.46
2023-01-15T05:12:01.594Z,81.59
2023-01-15T05:14:29.637Z,81.71
2023-01-15T05:16:57.448Z,81.58
2023-01-15T05:19:25.293Z,81.64
2023-01-15T05:21:54.137Z,81.61
2023-01-15T05:24:22.069Z,81.30
2023-01-15T05:26:50.092Z,81.36
2023-01-15T05:29:17.992Z,81.41
2023-01-15T05:31:46.457Z,81.21
2023-01-15T05:34:14.902Z,81.03
2023-01-15T05:36:42.905Z,81.10
2023-01-15T05:39:11.054Z,80.97
2023-01-15T05:41:49.166Z,80.92
2023-01-15T05:44:23.867Z,80.96
2023-01-15T05:46:55.117Z,80.77
2023-01-15T05:49:25.677Z,80.67
2023-01-15T05:51:55.278Z,80.64
2023-01-15T05:54:26.043Z,80.67
2023-01-15T05:56:54.205Z,80.37
2023-01-15T05:59:24.875Z,79.99
2023-01-15T06:01:53.411Z,80.12
2023-01-15T06:04:21.887Z,79.96
2023-01-15T06:06:51.455Z,79.83
2023-01-15T06:09:20.427Z,79.59
2023-01-15T06:11:49.225Z,79.82
2023-01-15T06:14:17.678Z,79.62
2023-01-15T06:16:46.032Z,79.43
2023-01-15T06:19:14.829Z,79.16
2023-01-15T06:21:42.888Z,79.37
2023-01-15T06:24:11.208Z,79.03
2023-01-15T06:26:39.874Z,78.91
2023-01-15T06:29:07.718Z,78.89
2023-01-15T06:31:35.763Z,78.92
2023-01-15T06:34:03.887Z,78.76
2023-01-15T06:36:31.737Z,79.18
2023-01-15T06:38:59.633Z,78.97
2023-01-15T06:41:46.172Z,79.02
2023-01-15T06:44:35.679Z,78.94
2023-01-15T06:47:21.065Z,78.69
2023-01-15T06:49:59.354Z,78.81
2023-01-15T06:52:28.881Z,78.60
2023-01-15T06:54:57.160Z,78.83
2023-01-15T06:57:25.320Z,78.78
2023-01-15T06:59:53.911Z,78.74
2023-01-15T07:02:22.123Z,78.75
2023-01-15T07:04:51.111Z,78.77
2023-01-15T07:07:20.906Z,78.84
2023-01-15T07:09:49.774Z,78.68
2023-01-15T07:12:18.087Z,78.77
2023-01-15T07:14:45.915Z,78.65
2023-01-15T07:17:14.497Z,78.79
2023-01-15T07:19:43.427Z,78.79
2023-01-15T07:22:11.543Z,78.63
2023-01-15T07:24:39.662Z,78.76
2023-01-15T07:27:08.729Z,79.05
2023-01-15T07:29:36.555Z,79.09
2023-01-15T07:32:04.887Z,79.52
2023-01-15T07:34:32.938Z,79.67
2023-01-15T07:37:00.911Z,79.82
2023-01-15T07:39:28.979Z,79.70
2023-01-15T07:42:15.612Z,80.17
2023-01-15T07:45:05.516Z,80.36
2023-01-15T07:47:52.054Z,80.56
2023-01-15T07:50:24.279Z,80.56
2023-01-15T07:52:53.467Z,80.37
2023-01-15T07:55:22.860Z,80.56
2023-01-15T07:57:51.343Z,80.49
2023-01-15T08:00:22.158Z,80.53
2023-01-15T08:02:50.972Z,80.58
2023-01-15T08:05:20.086Z,80.61
2023-01-15T08:07:49.132Z,80.64
2023-01-15T08:10:17.820Z,80.47
2023-01-15T08:13:04.613Z,80.32
2023-01-15T08:15:39.729Z,80.65
2023-01-15T08:18:07.675Z,80.62
2023-01-15T08:20:37.738Z,80.68
2023-01-15T08:23:05.857Z,80.48
2023-01-15T08:25:33.808Z,80.19
2023-01-15T08:28:03.368Z,80.26
2023-01-15T08:30:31.288Z,80.21
2023-01-15T08:33:00.990Z,80.09
2023-01-15T08:35:28.913Z,80.04
2023-01-15T08:37:56.710Z,79.77
2023-01-15T08:40:24.571Z,79.73
2023-01-15T08:42:52.443Z,79.64
2023-01-15T08:45:20.221Z,79.68
2023-01-15T08:47:48.004Z,79.48
2023-01-15T08:50:15.837Z,79.45
2023-01-15T08:52:43.653Z,79.26
2023-01-15T08:55:11.460Z,79.40
2023-01-15T08:57:39.316Z,79.28
2023-01-15T09:00:08.349Z,78.99
2023-01-15T09:02:36.392Z,78.86
2023-01-15T09:05:04.981Z,78.53
2023-01-15T09:07:32.997Z,78.54
2023-01-15T09:10:00.915Z,78.71
2023-01-15T09:12:29.457Z,78.82
2023-01-15T09:15:01.619Z,78.22
2023-01-15T09:17:33.107Z,78.23
2023-01-15T09:20:01.359Z,78.52
2023-01-15T09:22:31.140Z,78.58
2023-01-15T09:24:59.687Z,78.48
2023-01-15T09:27:29.034Z,78.52
2023-01-15T09:29:57.258Z,79.22
2023-01-15T09:32:25.335Z,79.30
2023-01-15T09:34:53.450Z,79.59
2023-01-15T09:37:21.354Z,79.79
2023-01-15T09:39:49.381Z,80.47
2023-01-15T09:42:50.822Z,80.61
2023-01-15T09:45:22.555Z,80.84
2023-01-15T09:48:08.534Z,81.06
2023-01-15T09:51:15.527Z,81.04
2023-01-15T09:53:43.406Z,81.29
2023-01-15T09:56:22.256Z,81.47
2023-01-15T09:58:52.122Z,81.79
2023-01-15T10:01:27.433Z,81.74
2023-01-15T10:04:15.888Z,82.02
2023-01-15T10:07:13.387Z,82.14
2023-01-15T10:09:42.634Z,82.42
2023-01-15T10:12:35.485Z,82.66
2023-01-15T10:15:19.967Z,82.61
2023-01-15T10:17:53.468Z,82.83
2023-01-15T10:20:57.400Z,83.11
2023-01-15T10:23:39.479Z,83.44
2023-01-15T10:26:32.911Z,83.36
2023-01-15T10:29:40.202Z,83.46
2023-01-15T10:32:14.357Z,83.72
2023-01-15T10:35:08.321Z,83.88
2023-01-15T10:37:47.286Z,84.38
2023-01-15T10:40:25.410Z,84.05
2023-01-15T10:43:30.552Z,84.08
2023-01-15T10:46:10.158Z,84.35
2023-01-15T10:48:46.429Z,84.49
2023-01-15T10:51:26.888Z,84.45
2023-01-15T10:54:07.465Z,84.44
2023-01-15T10:56:47.723Z,84.63
2023-01-15T10:59:28.121Z,84.78
2023-01-15T11:01:58.689Z,85.07
2023-01-15T11:04:31.584Z,84.97
2023-01-15T11:07:01.205Z,84.83
2023-01-15T11:09:36.313Z,85.07
2023-01-15T11:12:07.119Z,85.18
2023-01-15T11:15:02.107Z,85.23
2023-01-15T11:18:09.793Z,85.38
2023-01-15T11:20:45.426Z,86.07
2023-01-15T11:23:16.745Z,85.90
2023-01-15T11:26:00.080Z,86.01
2023-01-15T11:28:36.888Z,85.87
2023-01-15T11:31:04.712Z,86.00
2023-01-15T11:33:32.769Z,86.05
2023-01-15T11:36:05.180Z,86.27
2023-01-15T11:38:48.253Z,86.23
2023-01-15T11:41:58.098Z,86.33
2023-01-15T11:44:44.638Z,86.57
2023-01-15T11:47:32.576Z,86.55
2023-01-15T11:50:19.507Z,86.71
2023-01-15T11:52:57.514Z,86.60
2023-01-15T11:55:27.909Z,86.83
2023-01-15T11:57:57.541Z,86.83
2023-01-15T12:00:30.919Z,86.92
2023-01-15T12:03:05.311Z,87.02
2023-01-15T12:05:36.697Z,87.06
2023-01-15T12:08:28.431Z,87.09
2023-01-15T12:11:36.128Z,87.23
2023-01-15T12:14:22.355Z,87.17
2023-01-15T12:17:12.100Z,87.48
2023-01-15T12:19:51.712Z,87.26
2023-01-15T12:22:37.613Z,87.36
2023-01-15T12:25:30.957Z,87.45
2023-01-15T12:28:20.873Z,87.37
2023-01-15T12:31:05.996Z,87.23
2023-01-15T12:33:49.888Z,87.30
2023-01-15T12:36:39.378Z,87.39
2023-01-15T12:39:30.365Z,87.05
2023-01-15T12:42:26.033Z,87.30
2023-01-15T12:45:04.918Z,87.35
2023-01-15T12:47:51.497Z,87.09
2023-01-15T12:50:38.622Z,87.16
2023-01-15T12:53:27.688Z,87.16
2023-01-15T12:56:07.400Z,87.35
2023-01-15T12:59:14.605Z,87.43
2023-01-15T13:02:10.099Z,87.35
2023-01-15T13:04:52.203Z,87.18
2023-01-15T13:07:36.282Z,87.32
2023-01-15T13:10:17.956Z,87.30
2023-01-15T13:12:45.899Z,87.24
2023-01-15T13:15:19.841Z,87.10
2023-01-15T13:18:05.171Z,87.10
2023-01-15T13:20:43.693Z,86.95
2023-01-15T13:23:46.774Z,87.12
2023-01-15T13:26:29.682Z,86.79
2023-01-15T13:29:26.893Z,86.89
2023-01-15T13:31:58.017Z,86.86
2023-01-15T13:34:43.432Z,86.72
2023-01-15T13:37:26.350Z,86.78
2023-01-15T13:40:23.570Z,86.71
2023-01-15T13:42:52.511Z,86.73
2023-01-15T13:45:37.400Z,86.61
2023-01-15T13:48:15.039Z,86.60
2023-01-15T13:50:57.871Z,86.29
2023-01-15T13:53:45.868Z,86.21
2023-01-15T13:56:25.203Z,86.03
2023-01-15T13:58:57.629Z,86.03
2023-01-15T14:01:36.877Z,85.92
2023-01-15T14:04:18.199Z,85.69
2023-01-15T14:06:47.949Z,85.90
2023-01-15T14:09:22.361Z,85.81
2023-01-15T14:12:27.808Z,85.33
2023-01-15T14:15:41.447Z,85.42
2023-01-15T14:18:37.493Z,85.49
2023-01-15T14:21:25.053Z,84.89
2023-01-15T14:24:22.569Z,84.78
2023-01-15T14:27:16.231Z,84.85
2023-01-15T14:29:58.030Z,84.70
2023-01-15T14:33:06.776Z,84.27
2023-01-15T14:35:44.008Z,84.26
2023-01-15T14:38:21.981Z,84.00
2023-01-15T14:40:59.980Z,84.08
2023-01-15T14:43:31.292Z,83.90
2023-01-15T14:46:41.452Z,83.82
2023-01-15T14:49:30.677Z,83.85
2023-01-15T14:51:59.606Z,83.73
2023-01-15T14:54:29.426Z,83.66
2023-01-15T14:57:00.047Z,83.64
2023-01-15T14:59:57.418Z,83.56
2023-01-15T15:02:33.912Z,83.27
2023-01-15T15:05:03.360Z,83.21
2023-01-15T15:07:44.362Z,83.24
2023-01-15T15:10:32.633Z,83.37
2023-01-15T15:13:10.089Z,83.08
2023-01-15T15:16:04.995Z,82.99
2023-01-15T15:18:39.250Z,82.76
2023-01-15T15:21:15.987Z,82.97
2023-01-15T15:23:58.465Z,83.01
2023-01-15T15:26:26.275Z,82.89
2023-01-15T15:29:02.921Z,82.98
2023-01-15T15:31:40.914Z,82.80
2023-01-15T15:34:18.124Z,83.33
2023-01-15T15:36:46.981Z,83.02
2023-01-15T15:39:53.508Z,82.86
2023-01-15T15:42:49.343Z,82.55
2023-01-15T15:45:49.456Z,82.64
2023-01-15T15:48:53.290Z,82.31
2023-01-15T15:51:35.129Z,82.35
2023-01-15T15:54:13.634Z,82.38
2023-01-15T15:56:47.810Z,82.47
2023-01-15T15:59:32.627Z,82.25
2023-01-15T16:02:14.905Z,82.31
2023-01-15T16:04:51.427Z,82.32
2023-01-15T16:07:27.257Z,82.76
2023-01-15T16:09:59.897Z,82.65
2023-01-15T16:12:31.477Z,82.98
2023-01-15T16:15:00.477Z,82.94
2023-01-15T16:17:29.455Z,82.96
2023-01-15T16:19:58.631Z,83.07
2023-01-15T16:22:26.705Z,82.88
2023-01-15T16:24:59.009Z,82.86
2023-01-15T16:27:33.748Z,83.03
2023-01-15T16:30:02.216Z,82.63
2023-01-15T16:32:33.057Z,82.65
2023-01-15T16:35:08.181Z,82.84
2023-01-15T16:37:36.660Z,82.90
2023-01-15T16:40:06.154Z,82.99
2023-01-15T16:42:45.539Z,82.97
2023-01-15T16:45:22.308Z,83.04
2023-01-15T16:48:01.522Z,83.08
2023-01-15T16:50:34.364Z,83.27
2023-01-15T16:53:06.578Z,83.49
2023-01-15T16:55:34.357Z,83.76
2023-01-15T16:58:14.552Z,84.10
2023-01-15T17:00:46.063Z,84.34
2023-01-15T17:03:22.976Z,84.54
2023-01-15T17:06:13.249Z,84.82
2023-01-15T17:08:48.490Z,84.98
2023-01-15T17:11:22.184Z,85.40
2023-01-15T17:13:49.993Z,85.59
2023-01-15T17:16:23.172Z,85.76
2023-01-15T17:18:51.729Z,85.90
2023-01-15T17:21:47.584Z,86.08
2023-01-15T17:24:47.803Z,86.35
2023-01-15T17:27:30.973Z,86.64
2023-01-15T17:29:58.923Z,86.75
2023-01-15T17:32:31.668Z,86.84
2023-01-15T17:34:59.512Z,87.07
2023-01-15T17:37:27.850Z,87.29
2023-01-15T17:39:56.077Z,87.40
2023-01-15T17:42:23.912Z,87.47
2023-01-15T17:44:51.731Z,87.55
2023-01-15T17:47:19.644Z,87.82
2023-01-15T17:49:47.581Z,88.02
2023-01-15T17:52:19.756Z,88.15
2023-01-15T17:55:06.675Z,88.33
2023-01-15T17:57:53.471Z,88.52
2023-01-15T18:00:40.729Z,88.55
2023-01-15T18:03:37.127Z,88.79
2023-01-15T18:06:07.399Z,88.92
2023-01-15T18:08:36.440Z,88.86
2023-01-15T18:11:04.412Z,89.01
2023-01-15T18:13:32.215Z,88.94
2023-01-15T18:16:00.085Z,89.24
2023-01-15T18:18:28.059Z,89.45
2023-01-15T18:20:55.921Z,89.61
2023-01-15T18:23:26.293Z,89.68
2023-01-15T18:25:56.069Z,89.89
2023-01-15T18:28:24.097Z,90.13
2023-01-15T18:30:51.962Z,89.98
2023-01-15T18:33:20.066Z,90.21
2023-01-15T18:35:47.994Z,90.28
2023-01-15T18:38:15.828Z,90.38
2023-01-15T18:40:44.476Z,90.29
2023-01-15T18:43:48.312Z,90.43
2023-01-15T18:46:42.300Z,90.50
2023-01-15T18:49:10.263Z,90.60
2023-01-15T18:51:38.095Z,90.64
2023-01-15T18:54:06.315Z,90.64
2023-01-15T18:56:40.017Z,90.60
2023-01-15T18:59:13.578Z,90.87
2023-01-15T19:01:42.626Z,90.81
2023-01-15T19:04:11.228Z,90.94
2023-01-15T19:06:40.692Z,90.99
2023-01-15T19:09:16.477Z,90.94
2023-01-15T19:11:44.667Z,91.00
2023-01-15T19:14:31.646Z,91.16
2023-01-15T19:17:18.268Z,90.97
2023-01-15T19:19:46.545Z,91.15
2023-01-15T19:22:33.245Z,91.35
2023-01-15T19:25:00.992Z,91.35
2023-01-15T19:27:29.015Z,91.35
2023-01-15T19:29:57.164Z,91.45
2023-01-15T19:32:25.325Z,91.55
2023-01-15T19:34:53.153Z,91.39
2023-01-15T19:37:22.237Z,91.46
2023-01-15T19:39:50.160Z,91.61
2023-01-15T19:42:38.608Z,91.63
2023-01-15T19:45:25.965Z,91.63
2023-01-15T19:48:13.443Z,91.66
2023-01-15T19:50:42.842Z,91.67
2023-01-15T19:53:11.800Z,91.71
2023-01-15T19:55:43.699Z,91.58
2023-01-15T19:58:14.851Z,91.49
2023-01-15T20:00:48.279Z,91.56
2023-01-15T20:03:16.590Z,91.77
2023-01-15T20:05:46.997Z,91.64
2023-01-15T20:08:18.113Z,91.80
2023-01-15T20:10:49.841Z,91.75
2023-01-15T20:13:39.591Z,91.75
2023-01-15T20:16:10.969Z,91.99
2023-01-15T20:18:39.559Z,92.05
2023-01-15T20:21:08.652Z,92.27
2023-01-15T20:23:36.774Z,92.23
2023-01-15T20:26:07.149Z,92.26
2023-01-15T20:28:36.090Z,92.42
2023-01-15T20:31:04.402Z,92.52
2023-01-15T20:33:32.635Z,92.47
2023-01-15T20:36:04.540Z,92.44
2023-01-15T20:38:32.627Z,92.59
2023-01-15T20:41:26.284Z,92.62
2023-01-15T20:44:13.627Z,92.74
2023-01-15T20:46:41.667Z,92.68
2023-01-15T20:49:27.900Z,92.64
2023-01-15T20:51:57.722Z,92.75
2023-01-15T20:54:26.551Z,92.58
2023-01-15T20:56:54.391Z,92.80
2023-01-15T20:59:22.325Z,92.74
2023-01-15T21:01:50.366Z,92.95
2023-01-15T21:04:18.329Z,92.85
2023-01-15T21:06:47.362Z,92.93
2023-01-15T21:09:15.209Z,92.79
2023-01-15T21:11:42.969Z,92.92
2023-01-15T21:14:10.951Z,93.01
2023-01-15T21:16:38.734Z,92.86
2023-01-15T21:19:06.612Z,93.03
2023-01-15T21:21:34.855Z,93.17
2023-01-15T21:24:02.950Z,93.43
2023-01-15T21:26:32.033Z,93.23
2023-01-15T21:28:59.886Z,93.18
2023-01-15T21:31:28.509Z,92.92
2023-01-15T21:33:56.918Z,92.97
2023-01-15T21:36:24.827Z,92.99
2023-01-15T21:38:54.870Z,93.05
2023-01-15T21:41:46.091Z,93.09
2023-01-15T21:44:32.992Z,93.18
2023-01-15T21:47:06.345Z,93.04
2023-01-15T21:49:35.148Z,93.08
2023-01-15T21:52:06.268Z,93.00
2023-01-15T21:54:35.187Z,93.06
2023-01-15T21:57:03.346Z,92.90
2023-01-15T21:59:31.908Z,92.83
2023-01-15T22:02:00.854Z,92.92
2023-01-15T22:04:30.517Z,92.95
2023-01-15T22:06:58.300Z,92.78
2023-01-15T22:09:26.194Z,92.89
2023-01-15T22:11:54.197Z,92.88
2023-01-15T22:14:28.116Z,93.11
2023-01-15T22:16:58.615Z,92.91
2023-01-15T22:19:28.795Z,93.07
2023-01-15T22:22:02.818Z,92.96
2023-01-15T22:24:33.440Z,93.07
2023-01-15T22:27:03.783Z,93.06
2023-01-15T22:29:34.416Z,93.19
2023-01-15T22:32:02.680Z,93.05
2023-01-15T22:34:31.182Z,93.08
2023-01-15T22:36:59.321Z,93.12
2023-01-15T22:39:27.622Z,92.89
2023-01-15T22:42:14.217Z,93.18
2023-01-15T22:44:45.357Z,93.06
2023-01-15T22:47:13.297Z,93.13
2023-01-15T22:49:41.142Z,92.92
2023-01-15T22:52:09.254Z,93.06
2023-01-15T22:54:37.191Z,93.10
2023-01-15T22:57:05.543Z,92.99
2023-01-15T22:59:33.394Z,93.02
2023-01-15T23:02:01.484Z,93.24
2023-01-15T23:04:30.022Z,93.13
2023-01-15T23:06:58.081Z,93.12
2023-01-15T23:09:26.435Z,93.19
2023-01-15T23:11:54.406Z,92.96
2023-01-15T23:14:22.668Z,93.02
2023-01-15T23:16:51.041Z,93.05
2023-01-15T23:19:20.001Z,93.12
2023-01-15T23:21:47.842Z,92.95
2023-01-15T23:24:15.957Z,93.04
2023-01-15T23:26:44.194Z,92.92
2023-01-15T23:29:12.086Z,92.80
2023-01-15T23:31:40.238Z,93.02
2023-01-15T23:34:08.463Z,93.05
2023-01-15T23:36:36.683Z,93.05
2023-01-15T23:39:04.594Z,93.04
2023-01-15T23:41:51.529Z,93.19
2023-01-15T23:44:40.118Z,93.28
2023-01-15T23:47:08.697Z,93.33
2023-01-15T23:49:37.103Z,93.16
2023-01-15T23:52:05.575Z,93.18
2023-01-15T23:54:33.610Z,93.27
2023-01-15T23:57:02.723Z,93.35
2023-01-15T23:59:30.555Z,93.24
